createdAt,value
2018-08-03T00:01:04.919Z,98776.86
2018-08-03T00:03:34.328Z,98782.19
2018-08-03T00:06:03.765Z,98784.33
2018-08-03T00:08:33.302Z,98783.81
2018-08-03T00:11:02.779Z,98782.97
2018-08-03T00:13:32.294Z,98778.97
2018-08-03T00:16:01.719Z,98774.98
2018-08-03T00:18:31.101Z,98781.83
2018-08-03T00:21:00.527Z,98778.31
2018-08-03T00:23:29.993Z,98779.50
2018-08-03T00:25:59.461Z,98780.80
2018-08-03T00:28:28.883Z,98781.64
2018-08-03T00:30:58.335Z,98773.52
2018-08-03T00:33:27.756Z,98771.05
2018-08-03T00:35:57.180Z,98766.98
2018-08-03T00:38:26.628Z,98767.09
2018-08-03T00:40:56.043Z,98765.73
2018-08-03T00:43:25.534Z,98762.77
2018-08-03T00:45:54.962Z,98775.30
2018-08-03T00:48:24.375Z,98777.88
2018-08-03T00:50:53.838Z,98770.16
2018-08-03T00:53:23.350Z,98768.97
2018-08-03T00:55:52.809Z,98766.24
2018-08-03T00:58:22.190Z,98771.86
2018-08-03T01:00:51.717Z,98767.31
2018-08-03T01:03:21.183Z,98771.45
2018-08-03T01:05:50.556Z,98771.45
2018-08-03T01:08:19.985Z,98771.78
2018-08-03T01:10:49.405Z,98778.84
2018-08-03T01:13:18.816Z,98776.09
2018-08-03T01:15:48.289Z,98768.34
2018-08-03T01:18:17.708Z,98770.73
2018-08-03T01:20:47.143Z,98771.99
2018-08-03T01:23:16.532Z,98773.53
2018-08-03T01:25:45.932Z,98776.38
2018-08-03T01:28:15.330Z,98779.77
2018-08-03T01:30:44.819Z,98774.31
2018-08-03T01:33:14.305Z,98776.12
2018-08-03T01:35:43.788Z,98778.91
2018-08-03T01:38:13.286Z,98768.39
2018-08-03T01:40:42.709Z,98773.97
2018-08-03T01:43:12.144Z,98770.42
2018-08-03T01:45:41.517Z,98765.87
2018-08-03T01:48:10.936Z,98768.45
2018-08-03T01:50:40.433Z,98778.23
2018-08-03T01:53:09.871Z,98773.95
2018-08-03T01:55:39.269Z,98777.38
2018-08-03T01:58:08.723Z,98775.70
2018-08-03T02:00:38.159Z,98778.41
2018-08-03T02:03:07.739Z,98780.80
2018-08-03T02:05:37.155Z,98773.52
2018-08-03T02:08:06.926Z,98777.45
2018-08-03T02:10:36.326Z,98780.04
2018-08-03T02:13:05.788Z,98777.34
2018-08-03T02:15:35.265Z,98777.80
2018-08-03T02:18:04.708Z,98775.66
2018-08-03T02:20:34.095Z,98780.76
2018-08-03T02:23:03.543Z,98780.47
2018-08-03T02:25:32.989Z,98784.88
2018-08-03T02:28:02.479Z,98780.08
2018-08-03T02:30:31.932Z,98779.65
2018-08-03T02:33:01.422Z,98783.08
2018-08-03T02:35:30.881Z,98786.49
2018-08-03T02:38:00.310Z,98792.27
2018-08-03T02:40:29.792Z,98791.63
2018-08-03T02:42:59.189Z,98795.78
2018-08-03T02:45:28.599Z,98797.33
2018-08-03T02:47:58.026Z,98795.78
2018-08-03T02:50:27.459Z,98796.73
2018-08-03T02:52:56.902Z,98793.16
2018-08-03T02:55:26.341Z,98790.72
2018-08-03T02:57:55.777Z,98795.00
2018-08-03T03:00:25.230Z,98792.27
2018-08-03T03:02:54.603Z,98795.05
2018-08-03T03:05:24.101Z,98789.06
2018-08-03T03:07:53.508Z,98790.17
2018-08-03T03:10:22.973Z,98790.98
2018-08-03T03:12:52.404Z,98793.05
2018-08-03T03:15:21.804Z,98799.25
2018-08-03T03:17:51.257Z,98790.91
2018-08-03T03:20:20.724Z,98798.58
2018-08-03T03:22:50.258Z,98791.13
2018-08-03T03:25:19.686Z,98791.50
2018-08-03T03:27:49.141Z,98793.34
2018-08-03T03:30:18.576Z,98794.38
2018-08-03T03:32:48.045Z,98786.70
2018-08-03T03:35:17.472Z,98790.69
2018-08-03T03:37:46.889Z,98794.16
2018-08-03T03:40:16.317Z,98792.09
2018-08-03T03:42:45.782Z,98793.12
2018-08-03T03:45:15.247Z,98795.27
2018-08-03T03:47:44.696Z,98792.61
2018-08-03T03:50:14.096Z,98788.58
2018-08-03T03:52:43.526Z,98785.70
2018-08-03T03:55:13.067Z,98786.44
2018-08-03T03:57:42.532Z,98785.58
2018-08-03T04:00:12.022Z,98788.53
2018-08-03T04:02:41.443Z,98787.20
2018-08-03T04:05:10.938Z,98783.27
2018-08-03T04:07:40.349Z,98779.23
2018-08-03T04:10:09.795Z,98789.45
2018-08-03T04:12:39.233Z,98785.69
2018-08-03T04:15:08.771Z,98782.37
2018-08-03T04:17:38.189Z,98787.77
2018-08-03T04:20:07.703Z,98789.92
2018-08-03T04:22:37.208Z,98788.34
2018-08-03T04:25:06.778Z,98787.17
2018-08-03T04:27:36.254Z,98786.97
2018-08-03T04:30:06.768Z,98785.63
2018-08-03T04:32:36.219Z,98787.27
2018-08-03T04:35:05.664Z,98786.36
2018-08-03T04:37:35.147Z,98793.00
2018-08-03T04:40:04.953Z,98790.65
2018-08-03T04:42:34.435Z,98797.28
2018-08-03T04:45:03.788Z,98792.79
2018-08-03T04:47:33.214Z,98787.69
2018-08-03T04:50:02.672Z,98795.31
2018-08-03T04:52:32.140Z,98795.85
2018-08-03T04:55:01.579Z,98795.31
2018-08-03T04:57:31.007Z,98797.53
2018-08-03T05:00:00.487Z,98795.66
2018-08-03T05:02:29.926Z,98796.88
2018-08-03T05:04:59.384Z,98800.86
2018-08-03T05:07:28.833Z,98797.96
2018-08-03T05:09:58.391Z,98796.36
2018-08-03T05:12:27.756Z,98795.20
2018-08-03T05:14:57.243Z,98803.11
2018-08-03T05:17:26.681Z,98805.52
2018-08-03T05:19:56.151Z,98801.59
2018-08-03T05:22:25.586Z,98808.02
2018-08-03T05:24:55.067Z,98809.34
2018-08-03T05:27:24.568Z,98812.05
2018-08-03T05:29:54.068Z,98813.52
2018-08-03T05:32:23.451Z,98806.47
2018-08-03T05:34:52.876Z,98802.57
2018-08-03T05:37:22.271Z,98805.80
2018-08-03T05:39:51.688Z,98806.09
2018-08-03T05:42:21.125Z,98800.31
2018-08-03T05:44:50.519Z,98800.88
2018-08-03T05:47:19.924Z,98801.23
2018-08-03T05:49:49.345Z,98802.20
2018-08-03T05:52:18.862Z,98804.67
2018-08-03T05:54:48.319Z,98806.13
2018-08-03T05:57:17.765Z,98801.97
2018-08-03T05:59:47.213Z,98807.12
2018-08-03T06:02:16.632Z,98805.32
2018-08-03T06:04:46.029Z,98805.15
2018-08-03T06:07:15.449Z,98810.81
2018-08-03T06:09:44.923Z,98810.34
2018-08-03T06:12:14.426Z,98814.42
2018-08-03T06:14:43.784Z,98809.23
2018-08-03T06:17:13.232Z,98805.59
2018-08-03T06:19:43.475Z,98806.45
2018-08-03T06:22:12.979Z,98803.09
2018-08-03T06:24:42.437Z,98810.34
2018-08-03T06:27:11.875Z,98804.34
2018-08-03T06:29:41.020Z,98806.05
2018-08-03T06:32:10.465Z,98804.59
2018-08-03T06:34:39.903Z,98804.19
2018-08-03T06:37:09.556Z,98805.36
2018-08-03T06:39:39.038Z,98809.22
2018-08-03T06:42:08.477Z,98805.08
2018-08-03T06:44:37.909Z,98807.02
2018-08-03T06:47:07.084Z,98811.97
2018-08-03T06:49:36.545Z,98813.97
2018-08-03T06:52:06.120Z,98815.66
2018-08-03T06:54:35.242Z,98814.19
2018-08-03T06:57:04.703Z,98811.63
2018-08-03T06:59:34.205Z,98813.84
2018-08-03T07:02:03.700Z,98809.73
2018-08-03T07:04:33.128Z,98810.09
2018-08-03T07:07:02.820Z,98815.03
2018-08-03T07:09:32.251Z,98811.69
2018-08-03T07:12:01.689Z,98810.23
2018-08-03T07:14:31.187Z,98805.26
2018-08-03T07:17:00.571Z,98796.58
2018-08-03T07:19:29.982Z,98800.70
2018-08-03T07:21:59.177Z,98789.89
2018-08-03T07:24:29.161Z,98789.75
2018-08-03T07:26:58.653Z,98789.89
2018-08-03T07:29:28.081Z,98784.91
2018-08-03T07:31:57.541Z,98790.38
2018-08-03T07:34:27.010Z,98791.55
2018-08-03T07:36:56.555Z,98797.50
2018-08-03T07:39:26.244Z,98796.79
2018-08-03T07:41:55.399Z,98799.86
2018-08-03T07:44:24.892Z,98802.70
2018-08-03T07:46:54.330Z,98799.09
2018-08-03T07:49:23.752Z,98800.81
2018-08-03T07:51:52.886Z,98792.05
2018-08-03T07:54:22.332Z,98794.28
2018-08-03T07:56:52.270Z,98794.30
2018-08-03T07:59:21.739Z,98793.34
2018-08-03T08:01:52.463Z,98793.20
2018-08-03T08:04:21.904Z,98791.93
2018-08-03T08:06:51.374Z,98788.55
2018-08-03T08:09:20.875Z,98784.84
2018-08-03T08:11:50.307Z,98782.75
2018-08-03T08:14:19.791Z,98780.42
2018-08-03T08:16:49.771Z,98773.80
2018-08-03T08:19:19.228Z,98774.95
2018-08-03T08:21:48.738Z,98776.86
2018-08-03T08:24:18.228Z,98775.56
2018-08-03T08:26:47.603Z,98769.19
2018-08-03T08:29:17.036Z,98774.30
2018-08-03T08:31:46.471Z,98769.78
2018-08-03T08:34:45.370Z,98766.05
2018-08-03T08:37:15.008Z,98770.34
2018-08-03T08:39:44.592Z,98771.96
2018-08-03T08:42:14.114Z,98770.38
2018-08-03T08:44:43.267Z,98763.70
2018-08-03T08:47:12.713Z,98766.37
2018-08-03T08:49:41.809Z,98759.44
2018-08-03T08:52:11.269Z,98760.23
2018-08-03T08:54:40.808Z,98761.07
2018-08-03T08:57:10.111Z,98761.87
2018-08-03T08:59:39.650Z,98757.09
2018-08-03T09:02:08.837Z,98759.75
2018-08-03T09:04:37.974Z,98759.50
2018-08-03T09:07:07.696Z,98756.83
2018-08-03T09:09:37.168Z,98752.80
2018-08-03T09:12:06.838Z,98749.86
2018-08-03T09:14:36.498Z,98755.51
2018-08-03T09:17:06.238Z,98752.82
2018-08-03T09:19:35.706Z,98749.31
2018-08-03T09:22:05.270Z,98741.28
2018-08-03T09:24:34.715Z,98738.86
2018-08-03T09:27:03.893Z,98744.48
2018-08-03T09:29:33.381Z,98738.33
2018-08-03T09:32:03.128Z,98736.98
2018-08-03T09:34:32.858Z,98727.84
2018-08-03T09:37:02.419Z,98725.16
2018-08-03T09:39:31.869Z,98730.50
2018-08-03T09:42:01.359Z,98721.91
2018-08-03T09:44:30.812Z,98728.61
2018-08-03T09:47:00.376Z,98718.13
2018-08-03T09:49:29.818Z,98713.00
2018-08-03T09:51:59.306Z,98712.42
2018-08-03T09:54:28.796Z,98716.95
2018-08-03T09:56:57.921Z,98709.44
2018-08-03T09:59:27.378Z,98710.50
2018-08-03T10:01:56.858Z,98711.83
2018-08-03T10:04:26.409Z,98705.08
2018-08-03T10:06:55.909Z,98707.09
2018-08-03T10:09:25.080Z,98706.00
2018-08-03T10:11:54.263Z,98702.53
2018-08-03T10:14:23.722Z,98703.81
2018-08-03T10:16:53.183Z,98696.26
2018-08-03T10:19:22.653Z,98705.09
2018-08-03T10:21:52.527Z,98704.00
2018-08-03T10:24:21.997Z,98701.53
2018-08-03T10:26:51.481Z,98694.44
2018-08-03T10:29:20.990Z,98699.22
2018-08-03T10:31:50.454Z,98703.93
2018-08-03T10:34:19.651Z,98704.17
2018-08-03T10:36:49.079Z,98696.34
2018-08-03T10:39:18.493Z,98693.01
2018-08-03T10:41:47.929Z,98693.17
2018-08-03T10:44:17.363Z,98687.63
2018-08-03T10:46:46.849Z,98684.01
2018-08-03T10:49:16.306Z,98681.11
2018-08-03T10:51:45.806Z,98673.30
2018-08-03T10:54:15.347Z,98671.69
2018-08-03T10:56:44.734Z,98675.31
2018-08-03T10:59:14.191Z,98673.83
2018-08-03T11:01:43.696Z,98675.62
2018-08-03T11:04:13.114Z,98673.53
2018-08-03T11:06:42.636Z,98668.58
2018-08-03T11:09:11.744Z,98672.25
2018-08-03T11:11:41.109Z,98665.19
2018-08-03T11:14:10.557Z,98675.53
2018-08-03T11:16:40.045Z,98670.30
2018-08-03T11:19:09.269Z,98670.56
2018-08-03T11:21:38.694Z,98665.22
2018-08-03T11:24:08.256Z,98658.48
2018-08-03T11:26:37.697Z,98653.09
2018-08-03T11:29:07.168Z,98652.43
2018-08-03T11:31:36.340Z,98653.02
2018-08-03T11:34:05.742Z,98652.78
2018-08-03T11:36:35.235Z,98642.74
2018-08-03T11:39:06.741Z,98643.70
2018-08-03T11:41:36.216Z,98633.46
2018-08-03T11:44:05.996Z,98633.72
2018-08-03T11:46:35.493Z,98634.16
2018-08-03T11:49:05.084Z,98634.88
2018-08-03T11:51:34.639Z,98627.14
2018-08-03T11:54:04.218Z,98630.64
2018-08-03T11:56:37.032Z,98621.08
2018-08-03T11:59:06.517Z,98616.94
2018-08-03T12:01:35.935Z,98615.48
2018-08-03T12:04:05.447Z,98614.38
2018-08-03T12:06:34.974Z,98614.64
2018-08-03T12:09:04.981Z,98614.58
2018-08-03T12:11:34.426Z,98616.13
2018-08-03T12:14:03.983Z,98601.03
2018-08-03T12:16:34.466Z,98600.28
2018-08-03T12:19:03.887Z,98599.13
2018-08-03T12:21:33.286Z,98594.44
2018-08-03T12:24:03.664Z,98589.98
2018-08-03T12:26:33.104Z,98589.69
2018-08-03T12:29:02.529Z,98589.17
2018-08-03T12:31:32.039Z,98588.09
2018-08-03T12:34:01.158Z,98596.77
2018-08-03T12:36:30.639Z,98593.13
2018-08-03T12:39:00.156Z,98589.05
2018-08-03T12:41:29.650Z,98582.78
2018-08-03T12:43:59.063Z,98582.30
2018-08-03T12:46:29.486Z,98577.34
2018-08-03T12:48:58.968Z,98576.55
2018-08-03T12:51:28.494Z,98575.64
2018-08-03T12:53:57.903Z,98574.41
2018-08-03T12:56:27.343Z,98572.53
2018-08-03T12:58:56.824Z,98569.28
2018-08-03T13:01:26.292Z,98570.08
2018-08-03T13:03:55.780Z,98573.27
2018-08-03T13:06:26.354Z,98570.02
2018-08-03T13:08:55.765Z,98567.31
2018-08-03T13:11:25.190Z,98562.20
2018-08-03T13:13:54.643Z,98561.22
2018-08-03T13:16:24.080Z,98555.14
2018-08-03T13:18:54.139Z,98561.53
2018-08-03T13:21:35.481Z,98559.13
2018-08-03T13:24:05.176Z,98555.04
2018-08-03T13:26:35.309Z,98555.40
2018-08-03T13:29:04.796Z,98549.98
2018-08-03T13:31:34.332Z,98544.64
2018-08-03T13:34:04.005Z,98541.62
2018-08-03T13:36:33.489Z,98541.16
2018-08-03T13:39:03.006Z,98535.14
2018-08-03T13:41:32.451Z,98536.79
2018-08-03T13:44:01.912Z,98535.41
2018-08-03T13:46:31.358Z,98527.91
2018-08-03T13:49:01.486Z,98528.28
2018-08-03T13:51:30.949Z,98519.04
2018-08-03T13:54:00.935Z,98518.64
2018-08-03T13:56:30.374Z,98512.98
2018-08-03T13:58:59.556Z,98515.50
2018-08-03T14:01:46.228Z,98517.14
2018-08-03T14:04:15.705Z,98509.04
2018-08-03T14:06:45.188Z,98504.57
2018-08-03T14:09:14.673Z,98502.45
2018-08-03T14:11:44.135Z,98498.38
2018-08-03T14:14:13.602Z,98497.13
2018-08-03T14:16:43.116Z,98488.44
2018-08-03T14:19:12.645Z,98493.04
2018-08-03T14:21:42.095Z,98482.02
2018-08-03T14:24:11.549Z,98482.78
2018-08-03T14:26:41.077Z,98482.89
2018-08-03T14:29:10.533Z,98480.29
2018-08-03T14:31:40.089Z,98474.80
2018-08-03T14:34:09.448Z,98469.02
2018-08-03T14:36:38.915Z,98465.43
2018-08-03T14:39:10.234Z,98470.42
2018-08-03T14:41:40.097Z,98465.77
2018-08-03T14:44:09.682Z,98475.56
2018-08-03T14:46:39.847Z,98464.37
2018-08-03T14:49:09.306Z,98465.64
2018-08-03T14:51:39.141Z,98463.93
2018-08-03T14:54:08.554Z,98454.99
2018-08-03T14:56:38.057Z,98462.86
2018-08-03T14:59:07.579Z,98465.37
2018-08-03T15:01:37.074Z,98459.03
2018-08-03T15:04:06.763Z,98452.16
2018-08-03T15:06:36.262Z,98453.72
2018-08-03T15:09:09.194Z,98455.06
2018-08-03T15:11:38.737Z,98450.32
2018-08-03T15:14:08.206Z,98450.52
2018-08-03T15:16:37.742Z,98445.11
2018-08-03T15:19:07.332Z,98444.88
2018-08-03T15:21:36.904Z,98439.80
2018-08-03T15:24:06.365Z,98435.02
2018-08-03T15:26:35.483Z,98443.12
2018-08-03T15:29:04.929Z,98436.39
2018-08-03T15:31:34.394Z,98437.56
2018-08-03T15:34:03.872Z,98438.13
2018-08-03T15:36:33.116Z,98435.86
2018-08-03T15:39:02.541Z,98433.66
2018-08-03T15:41:32.065Z,98434.59
2018-08-03T15:44:01.553Z,98432.13
2018-08-03T15:46:31.140Z,98433.25
2018-08-03T15:49:00.740Z,98429.85
2018-08-03T15:51:30.305Z,98425.91
2018-08-03T15:53:59.807Z,98424.66
2018-08-03T15:56:29.322Z,98419.77
2018-08-03T15:58:58.897Z,98423.16
2018-08-03T16:01:28.369Z,98409.20
2018-08-03T16:03:57.850Z,98409.77
2018-08-03T16:06:27.340Z,98406.81
2018-08-03T16:08:56.878Z,98403.41
2018-08-03T16:11:26.407Z,98408.69
2018-08-03T16:13:55.825Z,98408.19
2018-08-03T16:16:25.289Z,98399.41
2018-08-03T16:18:54.749Z,98399.95
2018-08-03T16:21:24.154Z,98395.27
2018-08-03T16:23:53.655Z,98395.69
2018-08-03T16:26:23.190Z,98392.70
2018-08-03T16:28:52.665Z,98390.52
2018-08-03T16:31:22.138Z,98385.30
2018-08-03T16:33:51.604Z,98385.20
2018-08-03T16:36:21.074Z,98381.30
2018-08-03T16:38:50.560Z,98385.17
2018-08-03T16:41:20.033Z,98389.77
2018-08-03T16:43:49.553Z,98377.90
2018-08-03T16:46:18.739Z,98384.38
2018-08-03T16:48:48.804Z,98383.92
2018-08-03T16:51:18.304Z,98380.58
2018-08-03T16:53:47.735Z,98380.97
2018-08-03T16:56:17.226Z,98379.82
2018-08-03T16:58:46.646Z,98371.20
2018-08-03T17:01:16.122Z,98376.87
2018-08-03T17:03:45.677Z,98380.52
2018-08-03T17:06:15.089Z,98383.53
2018-08-03T17:08:44.515Z,98374.25
2018-08-03T17:11:13.983Z,98368.89
2018-08-03T17:13:43.498Z,98376.65
2018-08-03T17:16:13.009Z,98373.94
2018-08-03T17:18:42.464Z,98380.61
2018-08-03T17:21:11.911Z,98375.55
2018-08-03T17:23:41.352Z,98374.16
2018-08-03T17:26:10.773Z,98373.07
2018-08-03T17:28:40.237Z,98373.23
2018-08-03T17:31:09.637Z,98381.73
2018-08-03T17:33:39.088Z,98381.79
2018-08-03T17:36:08.522Z,98378.44
2018-08-03T17:38:37.991Z,98384.30
2018-08-03T17:41:07.571Z,98379.36
2018-08-03T17:43:37.089Z,98373.66
2018-08-03T17:46:06.790Z,98377.09
2018-08-03T17:48:36.281Z,98381.02
2018-08-03T17:51:05.775Z,98376.29
2018-08-03T17:53:35.261Z,98379.31
2018-08-03T17:56:04.790Z,98370.55
2018-08-03T17:58:34.249Z,98378.34
2018-08-03T18:01:03.732Z,98380.17
2018-08-03T18:03:32.903Z,98372.48
2018-08-03T18:06:02.398Z,98370.45
2018-08-03T18:08:31.863Z,98375.33
2018-08-03T18:11:01.357Z,98375.33
2018-08-03T18:13:30.861Z,98381.08
2018-08-03T18:16:00.107Z,98373.80
2018-08-03T18:18:29.436Z,98376.51
2018-08-03T18:20:58.882Z,98382.34
2018-08-03T18:23:29.130Z,98382.75
2018-08-03T18:25:58.564Z,98382.94
2018-08-03T18:28:28.274Z,98383.51
2018-08-03T18:30:57.687Z,98386.02
2018-08-03T18:33:27.125Z,98387.23
2018-08-03T18:35:56.308Z,98390.61
2018-08-03T18:38:25.818Z,98393.73
2018-08-03T18:40:55.331Z,98391.27
2018-08-03T18:43:24.485Z,98390.82
2018-08-03T18:45:53.931Z,98399.59
2018-08-03T18:48:23.098Z,98396.77
2018-08-03T18:50:52.554Z,98396.92
2018-08-03T18:53:22.025Z,98397.40
2018-08-03T18:55:51.462Z,98403.48
2018-08-03T18:58:20.575Z,98402.48
2018-08-03T19:00:50.039Z,98406.45
2018-08-03T19:03:19.473Z,98406.31
2018-08-03T19:05:48.948Z,98406.97
2018-08-03T19:08:18.367Z,98403.13
2018-08-03T19:10:47.526Z,98400.29
2018-08-03T19:13:17.033Z,98402.58
2018-08-03T19:15:46.575Z,98412.68
2018-08-03T19:18:15.728Z,98412.06
2018-08-03T19:20:45.163Z,98418.92
2018-08-03T19:23:14.650Z,98422.80
2018-08-03T19:25:44.078Z,98422.61
2018-08-03T19:28:13.545Z,98429.18
2018-08-03T19:30:43.021Z,98431.40
2018-08-03T19:33:12.458Z,98428.77
2018-08-03T19:35:41.926Z,98438.57
2018-08-03T19:38:11.326Z,98438.14
2018-08-03T19:40:40.788Z,98440.38
2018-08-03T19:43:10.199Z,98446.89
2018-08-03T19:45:39.620Z,98445.02
2018-08-03T19:48:09.096Z,98452.11
2018-08-03T19:50:38.827Z,98450.81
2018-08-03T19:53:08.274Z,98453.56
2018-08-03T19:58:06.303Z,98457.70
2018-08-03T20:00:35.785Z,98452.95
2018-08-03T20:03:05.216Z,98459.69
2018-08-03T20:05:34.662Z,98466.19
2018-08-03T20:08:03.834Z,98466.27
2018-08-03T20:10:35.272Z,98465.02
2018-08-03T20:13:04.772Z,98466.66
2018-08-03T20:15:34.298Z,98465.09
2018-08-03T20:18:04.278Z,98466.75
2018-08-03T20:20:33.753Z,98470.02
2018-08-03T20:23:03.197Z,98470.11
2018-08-03T20:25:32.760Z,98467.77
2018-08-03T20:28:02.238Z,98469.73
2018-08-03T20:30:31.845Z,98473.83
2018-08-03T20:33:01.167Z,98473.64
2018-08-03T20:35:30.657Z,98479.55
2018-08-03T20:38:00.242Z,98476.39
2018-08-03T20:40:29.740Z,98479.69
2018-08-03T20:42:59.192Z,98482.70
2018-08-03T20:45:28.747Z,98478.17
2018-08-03T20:47:58.206Z,98487.36
2018-08-03T20:50:27.682Z,98478.02
2018-08-03T20:52:57.167Z,98478.62
2018-08-03T20:55:27.180Z,98478.89
2018-08-03T20:57:56.807Z,98479.72
2018-08-03T21:00:26.427Z,98484.06
2018-08-03T21:02:55.850Z,98480.60
2018-08-03T21:05:25.343Z,98487.61
2018-08-03T21:07:54.905Z,98485.80
2018-08-03T21:10:24.432Z,98488.51
2018-08-03T21:12:54.666Z,98483.44
2018-08-03T21:15:24.327Z,98487.75
2018-08-03T21:17:53.485Z,98479.74
2018-08-03T21:20:22.965Z,98490.27
2018-08-03T21:22:52.415Z,98481.67
2018-08-03T21:25:21.817Z,98480.38
2018-08-03T21:27:51.293Z,98478.78
2018-08-03T21:30:20.797Z,98485.77
2018-08-03T21:32:49.943Z,98487.94
2018-08-03T21:35:19.485Z,98493.84
2018-08-03T21:37:48.976Z,98494.15
2018-08-03T21:40:18.536Z,98487.75
2018-08-03T21:42:47.959Z,98488.84
2018-08-03T21:45:17.353Z,98489.11
2018-08-03T21:47:46.794Z,98488.59
2018-08-03T21:50:15.963Z,98487.80
2018-08-03T21:52:45.423Z,98488.90
2018-08-03T21:55:14.517Z,98487.04
2018-08-03T21:57:43.922Z,98486.25
2018-08-03T22:00:22.016Z,98480.33
2018-08-03T22:02:51.538Z,98487.05
2018-08-03T22:05:21.131Z,98484.36
2018-08-03T22:07:50.701Z,98488.13
2018-08-03T22:10:20.189Z,98487.09
2018-08-03T22:12:49.628Z,98479.31
2018-08-03T22:15:19.580Z,98484.94
2018-08-03T22:17:49.060Z,98476.65
2018-08-03T22:20:18.259Z,98479.33
2018-08-03T22:22:47.675Z,98483.08
2018-08-03T22:25:17.094Z,98473.45
2018-08-03T22:27:46.710Z,98469.72
2018-08-03T22:30:16.195Z,98476.16
2018-08-03T22:32:45.761Z,98466.26
2018-08-03T22:35:15.227Z,98469.14
2018-08-03T22:37:44.690Z,98471.05
2018-08-03T22:40:14.139Z,98469.42
2018-08-03T22:42:43.631Z,98468.35
2018-08-03T22:45:13.394Z,98476.66
2018-08-03T22:47:42.924Z,98465.14
2018-08-03T22:50:12.387Z,98467.54
2018-08-03T22:52:41.767Z,98469.41
2018-08-03T22:55:11.188Z,98466.47
2018-08-03T22:57:40.642Z,98466.20
2018-08-03T23:00:10.584Z,98471.00
2018-08-03T23:02:40.087Z,98474.75
2018-08-03T23:05:09.536Z,98470.19
2018-08-03T23:07:39.057Z,98467.77
2018-08-03T23:10:08.445Z,98465.62
2018-08-03T23:12:37.934Z,98463.45
2018-08-03T23:15:07.846Z,98466.91
2018-08-03T23:17:37.405Z,98465.59
2018-08-03T23:20:07.339Z,98458.36
2018-08-03T23:22:36.768Z,98456.75
2018-08-03T23:25:06.745Z,98451.38
2018-08-03T23:27:36.099Z,98447.65
2018-08-03T23:30:07.404Z,98447.65
2018-08-03T23:32:36.839Z,98447.38
2018-08-03T23:35:06.494Z,98449.48
2018-08-03T23:37:36.128Z,98450.02
2018-08-03T23:40:05.775Z,98442.00
2018-08-03T23:42:35.806Z,98444.11
2018-08-03T23:45:05.957Z,98444.36
2018-08-03T23:47:35.629Z,98437.65
2018-08-03T23:50:10.410Z,98437.09
2018-08-03T23:52:40.079Z,98441.86
2018-08-03T23:55:09.510Z,98434.38
2018-08-03T23:57:38.924Z,98435.11
